Grand Forks, ND

11:04 AM CST on February 08, 2016 (GMT -0600)
APRSWXNET | | Change Station
CLOSE
Current Station
Personal Weather Station
Location: Grand Forks Air Force Base, ND
Elevation: 846 ft
Nearby Weather Stations

Elev 846 ft 47.89 °N, 97.16 °W | Updated 31 minutes ago

Snow
Snow
12 °F
Feels Like -1 °F
N
10
Wind Variable Wind from NNE
Gusts 23.0 mph

Today
High -- | Low -- °F
--% Chance of Precip.
Yesterday
High -- | Low -- °F
Precip. -- in
Pressure 30.26 in
Visibility 0.5 miles
Clouds
Windchill -1 °F
Dew Point 10 °F
Humidity 90%
Rainfall in
Snow Depth Not available.
7:46 AM 5:39 PM
New Moon, 0% visible
METAR KGFK 081653Z 34023G29KT 1/2SM R35L/2800V5000FT -SN BLSN VV013 M10/M13 A3020 RMK AO2 PK WND 34035/1555 TWR VIS 1 SLP247 VIS 1/4V3/4 P0000 T11001128 $
Pressure 30.26 in
Visibility 0.5 miles
Clouds
Windchill -1 °F
Dew Point 10 °F
Humidity 90%
Rainfall in
Snow Depth Not available.
7:46 AM 5:39 PM
New Moon, 0% visible
METAR KGFK 081653Z 34023G29KT 1/2SM R35L/2800V5000FT -SN BLSN VV013 M10/M13 A3020 RMK AO2 PK WND 34035/1555 TWR VIS 1 SLP247 VIS 1/4V3/4 P0000 T11001128 $

10-Day Weather Forecast

Almanac

Astronomy

Feb. 08, 2016 Rise Set
Actual Time
Civil Twilight
Nautical Twilight
Astronomical Twilight
Moon
Length of Visible Light
Length of Day
Tomorrow will be .
, % of the Moon is Illuminated

Today's Extremes

State Highs State Lows

Community

WunderPhotos

Upload Photos

1,891,471 photos uploaded!

WunderBlog® & News

Nearby

Air Quality

  Air Quality AQ Index Pollutant
Not available.

Snow Depth

Station Depth Elevation

Earthquake Activity

City Distance Mag. Time & Date
Minimum magnitude displayed is 2.5.

Coastal Water Temperatures

Place Temperature

Stations

Nearby Weather Stations

Station Location Temp. Windchill Dew Point Humidity Wind Precip. Elev Updated Type
                   

Watches & Warnings

Winter Weather Advisory
Issued: 5:59 AM CST Feb. 8, 2016 – National Weather Service

... Winter Weather Advisory now in effect until noon CST today...

* timing... expect snow showers and strong winds to continue
through the morning.

* Winds / visibilities... winds gusting as high as 40 mph will
cause areas lower visibility to a mile or less with snow
showers.

* Impacts... plan on slippery Road conditions.

* Winds... northwest 25 to 35 mph with gusts up to 40 mph.

Precautionary/preparedness actions...

A Winter Weather Advisory for blowing snow means that
visibilities will be limited due to strong winds blowing snow
around. Use caution when traveling... especially in open areas.